Time;durP1;ratioP1;P1;durP2;ratioP2;P2;SDS_P1;SDS_P2;PMS_P1;PMS_P2;Temp;Humidity;BMP_temperature;BMP_pressure;BME280_temperature;BME280_humidity;BME280_pressure;Samples;Min_cycle;Max_cycle;Signal;HPM_P1;HPM_P2
2024/03/22 00:02:07;;;;;;;15.77;10.65;;;11.20;99.90;;;;;;5048827;28;20017;-55
2024/03/22 00:04:32;;;;;;;16.83;11.65;;;11.10;99.90;;;;;;5048575;28;20047;-56
2024/03/22 00:06:58;;;;;;;18.33;11.75;;;11.00;99.90;;;;;;5048968;28;20037;-56
2024/03/22 00:09:23;;;;;;;19.90;11.23;;;11.00;99.90;;;;;;5049014;28;20029;-55
2024/03/22 00:11:49;;;;;;;15.88;11.93;;;11.00;99.90;;;;;;5048779;28;20112;-52
2024/03/22 00:14:14;;;;;;;15.90;11.75;;;10.90;99.90;;;;;;5049186;28;20029;-54
2024/03/22 00:16:40;;;;;;;18.30;11.45;;;10.90;99.90;;;;;;5048557;28;20481;-54
2024/03/22 00:19:06;;;;;;;19.15;11.90;;;10.90;99.90;;;;;;5048552;28;20052;-56
2024/03/22 00:21:31;;;;;;;15.35;11.68;;;10.80;99.90;;;;;;5048972;28;20476;-56
2024/03/22 00:23:58;;;;;;;22.63;12.82;;;10.80;99.90;;;;;;5048751;28;20028;-56
2024/03/22 00:26:23;;;;;;;17.42;13.10;;;10.70;99.90;;;;;;5049901;28;20024;-50
2024/03/22 00:28:49;;;;;;;20.35;12.50;;;10.80;99.90;;;;;;5049809;28;20128;-53
2024/03/22 00:31:15;;;;;;;17.90;12.18;;;10.70;99.90;;;;;;5048414;28;20033;-57
2024/03/22 00:33:41;;;;;;;14.02;11.30;;;10.60;99.90;;;;;;5048807;28;20033;-57
2024/03/22 00:36:07;;;;;;;17.42;13.18;;;10.60;99.90;;;;;;5048423;28;20451;-57
2024/03/22 00:38:32;;;;;;;19.60;12.52;;;10.60;99.90;;;;;;5048458;28;20013;-55
2024/03/22 00:40:58;;;;;;;18.63;12.55;;;10.60;99.90;;;;;;5048010;28;20025;-54
2024/03/22 00:43:23;;;;;;;18.85;12.30;;;10.60;99.90;;;;;;5052186;28;20024;-54
2024/03/22 00:45:49;;;;;;;17.23;12.18;;;10.50;99.90;;;;;;5067254;28;20024;-53
2024/03/22 00:48:15;;;;;;;15.93;12.82;;;10.50;99.90;;;;;;5068334;28;20063;-53
2024/03/22 00:50:41;;;;;;;15.35;11.10;;;10.50;99.90;;;;;;5068130;28;20029;-55
2024/03/22 00:53:07;;;;;;;17.63;11.82;;;10.40;99.90;;;;;;5068367;28;20071;-55
2024/03/22 00:55:33;;;;;;;20.40;12.07;;;10.50;99.90;;;;;;5068518;28;20077;-58
2024/03/22 00:57:59;;;;;;;18.33;12.63;;;10.50;99.90;;;;;;5068519;28;20486;-55
2024/03/22 01:00:24;;;;;;;18.15;13.02;;;10.40;99.90;;;;;;5068122;28;20029;-56
2024/03/22 01:02:50;;;;;;;14.80;11.48;;;10.40;99.90;;;;;;5058602;28;20076;-52
2024/03/22 01:05:17;;;;;;;20.23;13.15;;;10.40;99.90;;;;;;5048571;28;20136;-53
2024/03/22 01:07:42;;;;;;;19.67;13.63;;;10.40;99.90;;;;;;5048349;28;20083;-55
2024/03/22 01:10:08;;;;;;;15.48;11.13;;;10.40;99.90;;;;;;5059324;23;20134;-44
2024/03/22 01:12:34;;;;;;;19.30;12.77;;;10.30;99.90;;;;;;5030482;28;20393;-60
2024/03/22 01:14:59;;;;;;;18.98;13.23;;;10.30;99.90;;;;;;5031244;28;20141;-56
2024/03/22 01:17:28;;;;;;;17.88;13.18;;;;;;;;;;5034498;28;20033;-56
2024/03/22 01:19:53;;;;;;;19.30;12.88;;;10.10;99.90;;;;;;5033668;28;20029;-49
2024/03/22 01:22:19;;;;;;;23.75;13.70;;;10.10;99.90;;;;;;5035396;28;20392;-58
2024/03/22 01:24:45;;;;;;;68.57;39.63;;;10.10;99.90;;;;;;5034986;28;20021;-60
2024/03/22 01:27:11;;;;;;;21.15;14.35;;;10.00;99.90;;;;;;5050273;28;20116;-59
2024/03/22 01:29:36;;;;;;;21.38;13.48;;;9.90;99.90;;;;;;5034973;28;20116;-57
2024/03/22 01:32:02;;;;;;;23.45;15.25;;;9.90;99.90;;;;;;5050363;28;20030;-59
2024/03/22 01:34:28;;;;;;;21.33;13.23;;;9.90;99.90;;;;;;5034972;28;20108;-54
2024/03/22 01:36:53;;;;;;;23.85;14.38;;;9.80;99.90;;;;;;5034709;28;20108;-58
2024/03/22 01:39:21;;;;;;;20.58;13.77;;;9.80;99.90;;;;;;5050025;28;20029;-58
2024/03/22 01:41:47;;;;;;;20.10;12.85;;;9.80;99.90;;;;;;5034658;28;20067;-58
2024/03/22 01:44:13;;;;;;;24.23;12.90;;;9.60;99.90;;;;;;5050047;28;20396;-58
2024/03/22 01:46:44;;;;;;;17.08;11.02;;;9.50;99.90;;;;;;5034490;28;20087;-58
2024/03/22 01:49:11;;;;;;;18.80;12.70;;;9.50;99.90;;;;;;5035089;28;20022;-59
2024/03/22 01:51:37;;;;;;;17.40;11.73;;;9.40;99.90;;;;;;5049743;28;20025;-59
2024/03/22 01:54:04;;;;;;;18.52;12.20;;;9.40;99.90;;;;;;5034518;28;20033;-56
2024/03/22 01:56:30;;;;;;;21.55;14.32;;;9.40;99.90;;;;;;5034654;28;20037;-58
2024/03/22 01:58:56;;;;;;;24.55;14.00;;;9.40;99.90;;;;;;5049895;28;20021;-57
2024/03/22 02:01:22;;;;;;;24.17;15.40;;;9.40;99.90;;;;;;5034258;28;20041;-56
2024/03/22 02:03:48;;;;;;;22.92;14.57;;;9.40;99.90;;;;;;5034451;28;20105;-54
2024/03/22 02:06:14;;;;;;;20.48;14.25;;;9.40;99.90;;;;;;5049815;28;20120;-58
2024/03/22 02:08:41;;;;;;;25.80;13.40;;;;;;;;;;5034311;28;20367;-58
2024/03/22 02:11:08;;;;;;;21.27;13.73;;;;;;;;;;5033824;28;20033;-58
2024/03/22 02:13:34;;;;;;;19.08;13.13;;;9.30;99.90;;;;;;5034380;28;20532;-58
2024/03/22 02:16:03;;;;;;;22.25;14.40;;;9.30;99.90;;;;;;5034101;28;20088;-55
2024/03/22 02:18:28;;;;;;;20.63;12.82;;;9.20;99.90;;;;;;5034462;28;20404;-57
2024/03/22 02:20:54;;;;;;;16.70;12.30;;;9.20;99.90;;;;;;5033753;28;20025;-53
2024/03/22 02:23:27;;;;;;;17.70;12.50;;;9.20;99.90;;;;;;5034026;28;20029;-58
2024/03/22 02:25:53;;;;;;;17.70;12.13;;;9.10;99.90;;;;;;5049356;28;20034;-58
2024/03/22 02:28:18;;;;;;;13.90;10.60;;;9.10;99.90;;;;;;5033583;28;20543;-56
2024/03/22 02:30:43;;;;;;;16.30;11.15;;;9.10;99.90;;;;;;5033609;28;20040;-56
2024/03/22 02:33:09;;;;;;;25.40;11.45;;;9.00;99.90;;;;;;5049151;28;20511;-57
2024/03/22 02:35:34;;;;;;;21.10;12.27;;;9.00;99.90;;;;;;5033624;28;20040;-55
2024/03/22 02:38:00;;;;;;;18.85;13.32;;;9.00;99.90;;;;;;5033786;28;20319;-58
2024/03/22 02:40:25;;;;;;;20.00;13.38;;;9.00;99.90;;;;;;5032195;28;20092;-58
2024/03/22 02:42:51;;;;;;;20.08;13.45;;;9.00;99.90;;;;;;5033536;28;20076;-58
2024/03/22 02:45:16;;;;;;;16.75;11.73;;;9.00;99.90;;;;;;5048771;28;20022;-58
2024/03/22 02:47:42;;;;;;;17.48;11.88;;;8.90;99.90;;;;;;5033460;28;20515;-57
2024/03/22 02:50:07;;;;;;;20.30;13.02;;;8.90;99.90;;;;;;5033210;28;20033;-58
2024/03/22 02:52:33;;;;;;;17.88;12.35;;;8.90;99.90;;;;;;5048686;28;20044;-55
2024/03/22 02:54:58;;;;;;;21.13;14.55;;;8.90;99.90;;;;;;5033418;28;20144;-56
2024/03/22 02:58:20;;;;;;;18.13;12.18;;;8.90;99.90;;;;;;5033175;28;20033;-58
2024/03/22 03:00:45;;;;;;;20.00;12.30;;;8.90;99.90;;;;;;5031748;28;20083;-53
2024/03/22 03:03:11;;;;;;;19.63;12.55;;;8.90;99.90;;;;;;5033148;28;20034;-54
2024/03/22 03:05:36;;;;;;;17.08;12.45;;;8.90;99.90;;;;;;5033142;28;20025;-58
2024/03/22 03:08:03;;;;;;;20.75;13.05;;;8.90;99.90;;;;;;5033035;28;20105;-56
2024/03/22 03:10:29;;;;;;;19.83;14.15;;;8.90;99.90;;;;;;5032401;28;20448;-53
2024/03/22 03:12:55;;;;;;;21.30;14.25;;;8.90;99.90;;;;;;5032921;28;20032;-52
2024/03/22 03:15:21;;;;;;;18.45;12.32;;;8.90;99.90;;;;;;5033060;28;20101;-56
2024/03/22 03:17:46;;;;;;;21.38;14.65;;;9.00;99.90;;;;;;5032867;28;20026;-58
2024/03/22 03:20:13;;;;;;;27.70;14.75;;;9.00;99.90;;;;;;5032699;28;20055;-58
2024/03/22 03:22:39;;;;;;;24.45;14.52;;;9.00;99.90;;;;;;5032864;28;20432;-60
2024/03/22 03:25:06;;;;;;;25.70;14.15;;;9.00;99.90;;;;;;5032760;28;20119;-56
2024/03/22 03:27:32;;;;;;;24.17;15.55;;;9.00;99.90;;;;;;5032778;28;20485;-55
2024/03/22 03:29:57;;;;;;;21.83;14.27;;;9.00;99.90;;;;;;5032617;28;20040;-55
2024/03/22 03:32:24;;;;;;;21.83;14.40;;;9.00;99.90;;;;;;5032755;28;20496;-58
2024/03/22 03:34:50;;;;;;;21.00;14.13;;;9.00;99.90;;;;;;5032712;28;20181;-53
2024/03/22 03:37:15;;;;;;;23.95;15.50;;;9.00;99.90;;;;;;5032583;28;20114;-52
2024/03/22 03:39:41;;;;;;;20.40;13.40;;;9.00;99.90;;;;;;5031774;28;20026;-54
2024/03/22 03:42:06;;;;;;;19.38;13.43;;;9.00;99.90;;;;;;5032339;28;20029;-57
2024/03/22 03:44:32;;;;;;;22.40;14.82;;;9.00;99.90;;;;;;5032506;28;20017;-56
2024/03/22 03:46:57;;;;;;;20.40;14.50;;;9.00;99.90;;;;;;5032372;28;20051;-53
2024/03/22 03:49:23;;;;;;;23.85;14.20;;;9.00;99.90;;;;;;5032332;28;20025;-53
2024/03/22 03:51:48;;;;;;;17.95;12.38;;;9.00;99.90;;;;;;5032161;28;20022;-57
2024/03/22 03:54:14;;;;;;;21.33;14.70;;;9.00;99.90;;;;;;5032248;28;20112;-58
2024/03/22 03:56:39;;;;;;;25.48;15.68;;;9.00;99.90;;;;;;5032311;28;20509;-57
2024/03/22 03:59:05;;;;;;;23.05;15.70;;;9.00;99.90;;;;;;5032078;28;20026;-56
2024/03/22 04:01:30;;;;;;;25.65;15.27;;;9.10;99.90;;;;;;5031980;28;20029;-57
2024/03/22 04:03:56;;;;;;;23.95;14.93;;;9.00;99.90;;;;;;5032198;28;20068;-57
2024/03/22 04:06:21;;;;;;;25.63;14.40;;;9.00;99.90;;;;;;5032131;28;20053;-52
2024/03/22 04:08:47;;;;;;;22.88;15.50;;;9.00;99.90;;;;;;5031677;28;20101;-55
2024/03/22 04:11:12;;;;;;;23.92;15.10;;;9.00;99.90;;;;;;5031406;28;20552;-58
2024/03/22 04:13:38;;;;;;;20.83;14.13;;;9.10;99.90;;;;;;5032175;28;20029;-54
2024/03/22 04:16:04;;;;;;;22.88;13.77;;;9.10;99.90;;;;;;5047123;28;20022;-56
2024/03/22 04:18:30;;;;;;;22.75;14.20;;;9.00;99.90;;;;;;5031744;28;20397;-56
2024/03/22 04:20:57;;;;;;;20.67;13.40;;;9.00;99.90;;;;;;5031588;28;20028;-57
2024/03/22 04:23:23;;;;;;;18.77;12.38;;;9.00;99.90;;;;;;5031965;28;20041;-58
2024/03/22 04:25:57;;;;;;;19.55;13.23;;;9.00;99.90;;;;;;5032089;28;20037;-59
2024/03/22 04:28:24;;;;;;;21.55;13.25;;;9.00;99.90;;;;;;5031775;28;20045;-54
2024/03/22 04:30:56;;;;;;;22.58;12.98;;;9.00;99.90;;;;;;5031687;28;20033;-58
2024/03/22 04:33:21;;;;;;;17.70;12.52;;;8.90;99.90;;;;;;5031683;28;20056;-55
2024/03/22 04:35:47;;;;;;;22.30;13.65;;;8.90;99.90;;;;;;5032424;28;20034;-58
2024/03/22 04:38:12;;;;;;;20.05;13.27;;;8.90;99.90;;;;;;5031601;28;20017;-59
2024/03/22 04:40:38;;;;;;;22.10;13.68;;;8.90;99.90;;;;;;5047314;28;20382;-58
2024/03/22 04:43:03;;;;;;;19.60;13.50;;;8.90;99.90;;;;;;5031713;28;20440;-57
2024/03/22 04:45:29;;;;;;;18.88;13.32;;;8.90;99.90;;;;;;5031761;28;20036;-56
2024/03/22 04:47:54;;;;;;;22.23;12.98;;;8.90;99.90;;;;;;5031965;28;20516;-53
2024/03/22 04:50:20;;;;;;;17.52;12.30;;;8.90;99.90;;;;;;5031762;28;20039;-54
2024/03/22 04:52:45;;;;;;;20.77;13.50;;;8.90;99.90;;;;;;5032123;28;20024;-57
2024/03/22 04:55:11;;;;;;;17.35;11.60;;;8.90;99.90;;;;;;5032238;28;20389;-53
2024/03/22 04:57:37;;;;;;;19.48;12.35;;;9.00;99.90;;;;;;5031823;28;20025;-57
2024/03/22 05:00:03;;;;;;;18.85;12.45;;;8.90;99.90;;;;;;5031271;28;20034;-56
2024/03/22 05:02:28;;;;;;;18.90;12.77;;;8.90;99.90;;;;;;5047295;28;20113;-54
2024/03/22 05:04:54;;;;;;;18.58;12.23;;;8.90;99.90;;;;;;5046964;28;20044;-51
2024/03/22 05:07:19;;;;;;;21.40;12.25;;;9.00;99.90;;;;;;5031680;28;20033;-57
2024/03/22 05:09:45;;;;;;;22.88;12.02;;;9.00;99.90;;;;;;5031923;28;20528;-55
2024/03/22 05:12:10;;;;;;;18.98;12.43;;;9.10;99.90;;;;;;5031249;28;20080;-55
2024/03/22 05:14:36;;;;;;;19.85;13.82;;;9.10;99.90;;;;;;5031173;28;20503;-51
2024/03/22 05:17:01;;;;;;;18.90;12.23;;;9.10;99.90;;;;;;5031010;28;20041;-57
2024/03/22 05:19:27;;;;;;;23.45;12.88;;;;;;;;;;5031306;28;20024;-56
2024/03/22 05:21:53;;;;;;;19.30;12.57;;;;;;;;;;5030932;28;20025;-54
2024/03/22 05:24:19;;;;;;;18.42;12.35;;;9.30;99.90;;;;;;5031069;28;20435;-57
2024/03/22 05:26:44;;;;;;;23.83;12.75;;;9.20;99.90;;;;;;5030988;28;20030;-58
2024/03/22 05:29:11;;;;;;;22.92;10.98;;;9.20;99.90;;;;;;5031020;28;20080;-57
2024/03/22 05:31:47;;;;;;;16.27;11.80;;;9.20;99.90;;;;;;5031054;28;20096;-58
2024/03/22 05:34:14;;;;;;;20.05;13.07;;;9.30;99.90;;;;;;5031220;28;20025;-54
2024/03/22 05:36:40;;;;;;;16.50;11.73;;;9.20;99.90;;;;;;5030920;28;20029;-56
2024/03/22 05:39:05;;;;;;;20.83;13.45;;;9.30;99.90;;;;;;5046531;28;20559;-56
2024/03/22 05:41:31;;;;;;;18.65;12.82;;;9.20;99.90;;;;;;5030793;28;20025;-57
2024/03/22 05:43:56;;;;;;;21.65;14.10;;;9.20;99.90;;;;;;5030983;28;20025;-57
2024/03/22 05:46:22;;;;;;;19.40;12.90;;;9.30;99.90;;;;;;5030951;28;20041;-56
2024/03/22 05:48:49;;;;;;;19.75;12.70;;;9.30;99.90;;;;;;5030889;28;20032;-56
2024/03/22 05:51:15;;;;;;;21.27;12.98;;;9.30;99.90;;;;;;5030704;28;20528;-52
2024/03/22 05:53:41;;;;;;;19.52;12.48;;;9.40;99.90;;;;;;5030906;28;20029;-56
2024/03/22 05:56:06;;;;;;;21.23;12.30;;;9.30;99.90;;;;;;5030716;28;20115;-58
2024/03/22 05:58:32;;;;;;;19.90;12.55;;;9.30;99.90;;;;;;5030609;28;20057;-54
2024/03/22 06:00:58;;;;;;;20.02;12.65;;;9.40;99.90;;;;;;5030546;28;20385;-54
2024/03/22 06:03:23;;;;;;;17.90;12.02;;;9.40;99.90;;;;;;5033879;28;20108;-54
2024/03/22 06:05:49;;;;;;;24.05;11.73;;;9.50;99.90;;;;;;5034584;28;20160;-53
2024/03/22 06:08:20;;;;;;;23.25;14.63;;;9.60;99.90;;;;;;5034321;28;20026;-58
2024/03/22 06:10:45;;;;;;;17.85;11.73;;;9.70;99.90;;;;;;5049121;28;20060;-57
2024/03/22 06:13:11;;;;;;;20.20;13.13;;;9.70;99.90;;;;;;5034393;28;20068;-56
2024/03/22 06:15:36;;;;;;;19.30;12.73;;;9.80;99.90;;;;;;5034444;28;20040;-53
2024/03/22 06:18:02;;;;;;;19.92;13.23;;;9.90;99.90;;;;;;5049528;28;20017;-55
2024/03/22 06:20:27;;;;;;;19.35;12.70;;;9.90;99.90;;;;;;5034029;28;20053;-56
2024/03/22 06:22:53;;;;;;;21.20;12.70;;;10.00;99.90;;;;;;5034112;28;20101;-56
2024/03/22 06:25:18;;;;;;;20.05;12.88;;;10.10;99.90;;;;;;5034057;28;20025;-57
2024/03/22 06:27:44;;;;;;;17.92;12.93;;;10.20;99.90;;;;;;5033926;28;20022;-55
2024/03/22 06:30:10;;;;;;;19.05;12.80;;;10.30;99.90;;;;;;5033724;28;20029;-59
2024/03/22 06:32:35;;;;;;;17.17;12.07;;;10.40;99.90;;;;;;5033815;28;20033;-58
2024/03/22 06:35:01;;;;;;;20.08;11.60;;;10.50;99.90;;;;;;5033944;28;20108;-58
2024/03/22 06:37:26;;;;;;;19.35;12.80;;;10.70;99.90;;;;;;5033684;28;20087;-56
2024/03/22 06:39:52;;;;;;;19.55;12.23;;;10.80;99.90;;;;;;5033655;28;20108;-59
2024/03/22 06:42:17;;;;;;;22.02;12.32;;;11.20;99.90;;;;;;5033600;28;20060;-53
2024/03/22 06:44:43;;;;;;;19.20;11.48;;;11.20;99.90;;;;;;5033644;28;20025;-57
2024/03/22 06:47:08;;;;;;;16.15;11.48;;;11.20;99.90;;;;;;5033570;28;20053;-58
2024/03/22 06:49:34;;;;;;;20.00;12.30;;;11.20;99.90;;;;;;5033630;28;20044;-57
2024/03/22 06:51:59;;;;;;;23.13;13.73;;;11.10;99.90;;;;;;5033288;28;20033;-54
2024/03/22 06:54:26;;;;;;;18.27;13.68;;;11.10;99.90;;;;;;5033489;28;20155;-56
2024/03/22 06:56:52;;;;;;;25.73;13.75;;;11.10;99.90;;;;;;5033426;28;20022;-55
2024/03/22 06:59:17;;;;;;;20.33;12.52;;;11.10;99.90;;;;;;5033532;28;20025;-52
2024/03/22 07:01:42;;;;;;;23.08;13.40;;;11.00;99.90;;;;;;5033262;28;20104;-55
2024/03/22 07:04:08;;;;;;;26.25;12.82;;;10.90;99.90;;;;;;5033580;28;20030;-53
2024/03/22 07:06:34;;;;;;;19.85;13.60;;;10.90;99.90;;;;;;5033351;28;20033;-56
2024/03/22 07:09:00;;;;;;;22.00;13.57;;;10.90;99.90;;;;;;5048430;28;20021;-53
2024/03/22 07:11:25;;;;;;;20.70;14.05;;;10.90;99.90;;;;;;5054391;22;20037;-52
2024/03/22 07:13:51;;;;;;;20.58;14.52;;;11.00;99.90;;;;;;5047434;28;20500;-52
2024/03/22 07:16:16;;;;;;;30.83;14.05;;;11.00;99.90;;;;;;5021547;28;20406;-51
2024/03/22 07:18:42;;;;;;;21.10;14.45;;;11.00;99.90;;;;;;5013838;28;20018;-53
2024/03/22 07:21:07;;;;;;;22.58;14.60;;;10.90;99.90;;;;;;5012981;28;20494;-53
2024/03/22 07:23:33;;;;;;;21.40;14.93;;;11.10;99.90;;;;;;5013280;28;20449;-51
2024/03/22 07:25:59;;;;;;;23.40;14.55;;;11.00;99.90;;;;;;5013182;28;20068;-51
2024/03/22 07:28:25;;;;;;;19.15;13.50;;;11.10;99.90;;;;;;5013057;28;20030;-50
2024/03/22 07:30:50;;;;;;;19.50;13.02;;;11.20;99.90;;;;;;5012774;28;20104;-52
2024/03/22 07:33:17;;;;;;;19.30;13.30;;;11.30;99.90;;;;;;5012923;28;20470;-54
2024/03/22 07:35:43;;;;;;;22.60;13.93;;;11.30;99.90;;;;;;5012913;28;20056;-51
2024/03/22 07:38:10;;;;;;;21.45;13.88;;;11.30;99.90;;;;;;5012816;28;20018;-53
2024/03/22 07:40:35;;;;;;;23.05;13.50;;;11.30;99.90;;;;;;5013035;28;20301;-54
2024/03/22 07:43:06;;;;;;;20.10;13.68;;;11.20;99.90;;;;;;5012782;28;20032;-57
2024/03/22 07:45:34;;;;;;;18.58;12.90;;;11.20;99.90;;;;;;5028041;28;20107;-53
2024/03/22 07:48:00;;;;;;;17.33;12.40;;;11.20;99.90;;;;;;5027753;28;20049;-55
2024/03/22 07:50:25;;;;;;;23.55;11.85;;;11.10;99.90;;;;;;5012436;28;20025;-52
2024/03/22 07:52:51;;;;;;;16.48;12.45;;;11.10;99.90;;;;;;5011400;28;20022;-52
2024/03/22 07:55:17;;;;;;;18.20;13.25;;;11.20;99.90;;;;;;5011297;28;20022;-53
2024/03/22 07:57:42;;;;;;;17.52;13.25;;;11.20;99.90;;;;;;5012402;28;20037;-53
2024/03/22 08:00:08;;;;;;;20.85;13.93;;;11.30;99.90;;;;;;5012476;28;20092;-50
2024/03/22 08:02:35;;;;;;;19.33;13.05;;;11.30;99.90;;;;;;5012378;28;20025;-50
2024/03/22 08:05:01;;;;;;;18.42;12.45;;;11.30;99.90;;;;;;5011112;28;20029;-55
2024/03/22 08:07:27;;;;;;;20.55;13.43;;;11.40;99.90;;;;;;5012364;28;20022;-55
2024/03/22 08:09:53;;;;;;;21.30;12.65;;;11.40;99.90;;;;;;5027593;28;20025;-51
2024/03/22 08:12:19;;;;;;;20.92;13.43;;;11.40;99.90;;;;;;5011740;28;20065;-54
2024/03/22 08:14:45;;;;;;;17.58;12.63;;;11.50;99.90;;;;;;5012260;28;20439;-55
2024/03/22 08:17:10;;;;;;;19.35;12.23;;;11.40;99.90;;;;;;5012110;28;20108;-54
2024/03/22 08:19:36;;;;;;;17.67;12.75;;;11.50;99.90;;;;;;5012522;28;20397;-52
2024/03/22 08:22:02;;;;;;;22.15;12.10;;;11.50;99.90;;;;;;5011967;28;20018;-54
2024/03/22 08:24:27;;;;;;;17.85;11.70;;;11.50;99.90;;;;;;5010527;28;20029;-53
2024/03/22 08:26:53;;;;;;;18.52;13.57;;;11.50;99.90;;;;;;5012192;28;20037;-50
2024/03/22 08:29:19;;;;;;;18.27;12.75;;;11.50;99.90;;;;;;5012342;28;20394;-52
2024/03/22 08:31:44;;;;;;;24.08;12.05;;;11.50;99.90;;;;;;5012268;28;20033;-56
2024/03/22 08:34:10;;;;;;;19.17;12.80;;;11.60;99.90;;;;;;5012253;28;20033;-54
2024/03/22 08:36:36;;;;;;;18.85;10.85;;;11.60;99.90;;;;;;5011946;28;20034;-55
2024/03/22 08:39:02;;;;;;;14.13;11.68;;;11.70;99.90;;;;;;5010925;28;20160;-53
2024/03/22 08:41:28;;;;;;;16.85;12.25;;;11.80;99.90;;;;;;5012369;28;20021;-51
2024/03/22 08:43:53;;;;;;;19.42;10.70;;;11.90;99.90;;;;;;5012007;28;20033;-52
2024/03/22 08:46:21;;;;;;;15.18;11.25;;;12.00;99.90;;;;;;5012021;28;20046;-50
2024/03/22 08:48:46;;;;;;;19.55;10.75;;;12.00;99.90;;;;;;5011811;28;20032;-52
2024/03/22 08:51:12;;;;;;;15.35;11.13;;;12.00;99.90;;;;;;5011609;28;20113;-53
2024/03/22 08:53:38;;;;;;;19.95;12.05;;;12.10;99.90;;;;;;5012268;28;20034;-52
2024/03/22 08:56:03;;;;;;;17.70;11.57;;;12.10;99.90;;;;;;5011775;28;20034;-54
2024/03/22 08:58:29;;;;;;;16.08;10.48;;;12.20;99.90;;;;;;5011527;28;20026;-54
2024/03/22 09:00:54;;;;;;;18.70;12.80;;;12.30;99.90;;;;;;5011576;28;20034;-55
2024/03/22 09:03:21;;;;;;;16.45;11.32;;;12.40;99.90;;;;;;5011792;28;20061;-50
2024/03/22 09:05:46;;;;;;;17.20;10.98;;;12.50;99.90;;;;;;5011821;28;20022;-50
2024/03/22 09:08:12;;;;;;;14.25;10.32;;;12.60;99.90;;;;;;5011547;28;20040;-50
2024/03/22 09:10:37;;;;;;;15.70;10.75;;;12.70;99.90;;;;;;5010934;28;20112;-55
2024/03/22 09:13:03;;;;;;;11.75;9.40;;;12.70;99.90;;;;;;5011809;28;20034;-55
2024/03/22 09:15:29;;;;;;;15.38;9.90;;;12.80;99.90;;;;;;5011689;28;20025;-56
2024/03/22 09:17:54;;;;;;;10.88;8.80;;;12.80;99.90;;;;;;5011664;28;20030;-56
2024/03/22 09:20:20;;;;;;;15.32;8.60;;;12.90;99.90;;;;;;5011768;28;20026;-54
2024/03/22 09:22:46;;;;;;;12.73;9.30;;;13.00;99.90;;;;;;5011874;28;20022;-56
2024/03/22 09:25:11;;;;;;;13.38;9.02;;;13.20;99.90;;;;;;5018347;28;20029;-60
2024/03/22 09:27:37;;;;;;;13.20;8.75;;;13.30;99.90;;;;;;5031477;28;20461;-57
2024/03/22 09:30:04;;;;;;;18.20;9.35;;;13.50;99.90;;;;;;5031185;28;20029;-57
2024/03/22 09:32:29;;;;;;;17.13;8.73;;;13.70;99.90;;;;;;5031065;28;20044;-57
2024/03/22 09:34:55;;;;;;;11.98;8.23;;;13.80;99.90;;;;;;5029831;28;20473;-54
2024/03/22 09:37:22;;;;;;;14.30;9.50;;;13.90;99.90;;;;;;5032519;28;20128;-55
2024/03/22 09:39:47;;;;;;;14.75;8.82;;;13.90;99.90;;;;;;5034698;28;20100;-54
2024/03/22 09:42:17;;;;;;;14.90;9.25;;;13.90;99.90;;;;;;5032599;28;20167;-54
2024/03/22 09:44:48;;;;;;;15.68;9.63;;;13.90;99.90;;;;;;5030300;28;20417;-54
2024/03/22 09:47:21;;;;;;;14.48;9.25;;;14.00;99.90;;;;;;5028923;28;20033;-54
2024/03/22 09:49:48;;;;;;;12.73;9.38;;;14.00;99.90;;;;;;5029037;28;20029;-56
2024/03/22 09:52:14;;;;;;;13.43;8.82;;;14.00;99.90;;;;;;5021441;28;20457;-54
2024/03/22 09:54:43;;;;;;;12.05;9.32;;;14.00;99.90;;;;;;5045055;28;20060;-55
2024/03/22 09:57:17;;;;;;;16.27;9.07;;;14.00;99.90;;;;;;5047914;28;20068;-57
2024/03/22 09:59:44;;;;;;;12.65;9.13;;;14.00;99.90;;;;;;5034445;28;20025;-57
2024/03/22 10:02:15;;;;;;;15.68;9.63;;;14.10;99.90;;;;;;5033519;28;20029;-53
2024/03/22 10:04:41;;;;;;;14.35;9.30;;;14.00;99.90;;;;;;5025928;28;20025;-52
2024/03/22 10:07:08;;;;;;;13.48;8.82;;;14.00;99.90;;;;;;5019010;28;20105;-53
2024/03/22 10:09:34;;;;;;;11.82;8.15;;;14.00;99.90;;;;;;5021828;28;20056;-57
2024/03/22 10:11:59;;;;;;;16.23;9.48;;;14.20;99.90;;;;;;5034121;28;20112;-56
2024/03/22 10:14:26;;;;;;;18.17;10.43;;;14.30;99.90;;;;;;5031836;28;20060;-53
2024/03/22 10:16:55;;;;;;;19.95;9.90;;;14.40;99.90;;;;;;5034212;28;20029;-56
2024/03/22 10:19:21;;;;;;;15.15;8.95;;;14.50;99.90;;;;;;5034308;28;20439;-54
2024/03/22 10:21:58;;;;;;;17.00;9.05;;;14.60;99.90;;;;;;5034095;28;20022;-52
2024/03/22 10:24:24;;;;;;;15.80;9.05;;;14.70;99.90;;;;;;5034076;28;20039;-52
2024/03/22 10:26:50;;;;;;;12.82;8.55;;;14.80;99.90;;;;;;5033910;28;20536;-46
2024/03/22 10:29:16;;;;;;;9.55;7.60;;;14.90;99.90;;;;;;5033966;28;20037;-49
2024/03/22 10:31:42;;;;;;;18.90;8.38;;;15.00;99.90;;;;;;5033349;28;20061;-48
2024/03/22 10:34:11;;;;;;;13.70;8.63;;;15.10;99.90;;;;;;5032787;28;20033;-45
2024/03/22 10:36:36;;;;;;;14.85;8.50;;;15.10;99.90;;;;;;5032600;28;20103;-48
2024/03/22 10:39:03;;;;;;;13.48;7.90;;;15.20;99.90;;;;;;5034143;28;20085;-46
2024/03/22 10:41:29;;;;;;;12.10;7.95;;;15.30;99.90;;;;;;5033887;28;20029;-46
2024/03/22 10:43:54;;;;;;;10.95;8.73;;;15.40;99.90;;;;;;5033032;28;20025;-46
2024/03/22 10:46:21;;;;;;;15.43;8.55;;;15.50;99.90;;;;;;5049062;28;20025;-46
2024/03/22 10:48:47;;;;;;;10.70;8.38;;;15.60;99.90;;;;;;5033302;28;20049;-45
2024/03/22 10:51:14;;;;;;;15.93;7.50;;;15.70;99.90;;;;;;5032302;28;20095;-49
2024/03/22 10:53:41;;;;;;;14.48;8.88;;;15.70;99.90;;;;;;5033637;28;20034;-53
2024/03/22 10:56:08;;;;;;;13.60;8.50;;;15.80;99.90;;;;;;5033655;28;20457;-50
2024/03/22 10:58:33;;;;;;;8.88;7.25;;;15.90;99.90;;;;;;5033773;28;20496;-50
2024/03/22 11:01:00;;;;;;;32.10;17.45;;;15.80;99.90;;;;;;5029358;28;20030;-49
2024/03/22 11:03:26;;;;;;;20.73;14.10;;;15.80;99.90;;;;;;5033289;28;20018;-53
2024/03/22 11:05:56;;;;;;;28.20;17.40;;;15.70;99.90;;;;;;5033430;28;20022;-49
2024/03/22 11:08:29;;;;;;;17.55;8.38;;;15.70;99.90;;;;;;5033311;28;20029;-51
2024/03/22 11:10:56;;;;;;;15.77;8.18;;;15.80;99.90;;;;;;5036444;28;20040;-48
2024/03/22 11:13:22;;;;;;;11.93;8.15;;;15.80;99.90;;;;;;5035049;28;20029;-49
2024/03/22 11:15:51;;;;;;;11.23;7.38;;;15.70;99.90;;;;;;5014014;28;20109;-50
2024/03/22 11:18:17;;;;;;;12.35;8.25;;;15.70;99.90;;;;;;5017447;28;20474;-50
2024/03/22 11:20:47;;;;;;;10.02;7.68;;;15.80;99.90;;;;;;5032718;28;20132;-48
2024/03/22 11:23:12;;;;;;;17.02;8.10;;;15.90;99.90;;;;;;5032718;28;20033;-48
2024/03/22 11:25:38;;;;;;;11.82;7.45;;;15.90;99.90;;;;;;5033295;28;20033;-48
2024/03/22 11:28:04;;;;;;;12.40;8.13;;;16.00;99.90;;;;;;5022114;28;20026;-49
2024/03/22 11:30:31;;;;;;;9.57;6.88;;;15.90;99.90;;;;;;5021666;28;20430;-55
2024/03/22 11:32:57;;;;;;;7.95;6.43;;;15.90;99.90;;;;;;5023576;28;20048;-53
2024/03/22 11:35:23;;;;;;;10.63;8.50;;;16.00;99.90;;;;;;5027554;28;20084;-56
2024/03/22 11:37:50;;;;;;;18.45;7.75;;;16.10;99.90;;;;;;5021484;28;20130;-56
2024/03/22 11:40:15;;;;;;;17.00;8.85;;;16.20;99.90;;;;;;5015927;28;20045;-54
2024/03/22 11:42:47;;;;;;;11.55;8.07;;;16.20;99.90;;;;;;5015488;28;20030;-57
2024/03/22 11:45:15;;;;;;;13.85;8.02;;;16.30;99.90;;;;;;5022038;28;20040;-49
2024/03/22 11:47:40;;;;;;;13.35;8.25;;;16.30;99.90;;;;;;5028733;28;20032;-49
2024/03/22 11:50:06;;;;;;;14.85;7.50;;;16.50;99.90;;;;;;5021821;28;20409;-48
2024/03/22 11:52:32;;;;;;;11.98;7.95;;;16.60;99.90;;;;;;5014551;28;20053;-46
2024/03/22 11:54:58;;;;;;;12.00;8.15;;;16.70;99.90;;;;;;5011121;28;20033;-53
2024/03/22 11:57:24;;;;;;;10.18;6.70;;;16.80;99.90;;;;;;5011123;28;20030;-54
2024/03/22 11:59:51;;;;;;;11.43;7.55;;;16.90;99.90;;;;;;5009964;28;20026;-53
2024/03/22 12:02:16;;;;;;;9.18;7.40;;;16.90;99.90;;;;;;5023310;28;20049;-52
2024/03/22 12:04:44;;;;;;;15.77;7.70;;;16.90;99.90;;;;;;5029954;28;20065;-51
2024/03/22 12:07:13;;;;;;;12.55;7.20;;;16.90;99.90;;;;;;5028389;28;20029;-52
2024/03/22 12:09:40;;;;;;;13.30;8.15;;;17.10;99.90;;;;;;5031473;28;20603;-48
2024/03/22 12:12:09;;;;;;;10.38;7.63;;;17.10;99.90;;;;;;5031425;28;20045;-47
2024/03/22 12:14:35;;;;;;;14.48;7.00;;;17.10;99.90;;;;;;5032007;28;20030;-49
2024/03/22 12:17:01;;;;;;;10.65;6.55;;;17.10;99.90;;;;;;5031904;28;20171;-50
2024/03/22 12:19:27;;;;;;;11.27;7.82;;;17.30;99.90;;;;;;5030949;28;20452;-52
2024/03/22 12:21:52;;;;;;;13.57;8.00;;;17.40;99.90;;;;;;5031378;28;20033;-52
2024/03/22 12:24:18;;;;;;;13.75;7.18;;;17.50;99.90;;;;;;5047138;28;20025;-47
2024/03/22 12:26:44;;;;;;;9.23;7.68;;;17.50;99.90;;;;;;5031961;28;20075;-46
2024/03/22 12:29:10;;;;;;;12.13;7.90;;;17.50;99.90;;;;;;5031953;28;20079;-53
2024/03/22 12:31:38;;;;;;;13.90;8.93;;;17.50;99.90;;;;;;5031706;28;20022;-47